Main page
METAR-TAF:

METAR-TAF

Airports :

Alice Springs Airport

Alice Springs, Australia

latitude: 23-48S, longitude: 133-53E, elevation: 545 m

Current weather observation

The report was made 29 minutes ago, at 01:00 UTC
Wind 14 kt from the East/Northeast
Temperature 27°C
Humidity 21%
Pressure 1021 hPa
Visibility 10 km or more

METAR: YBAS 190100Z AUTO 07014KT 9999 // NCD 27/03 Q1021 RF00.0/000.0

Time: 10:59 (01:29 UTC)

Forecast

The report was made 2 hours and 7 minutes ago, at 23:22 UTC
Forecast valid from 19 at 00 UTC to 19 at 24 UTC
Wind 12 kt from the East/Northeast
Visibility 10 km or more
no clouds below 1500 m and no cumulonimbus
From 19 at 0800 UTC
Wind 6 kt from the East/Northeast
Visibility 10 km or more
no clouds below 1500 m and no cumulonimbus
From 19 at 2300 UTC
Wind 14 kt from the North/Northeast
Visibility 10 km or more
no clouds below 1500 m and no cumulonimbus

TAF: YBAS 182322Z 1900/1924 06012KT CAVOK FM190800 07006KT CAVOK FM192300 03014KT CAVOK

Weather observations and forecasts of more than 4000 airports (METAR and TAF reports).

The available stations are represented by yellow and red dots on the map.

Hover mouse over dot to see the name of the station.

Then click to see weather observations and forecasts.

To change the map : click on the green buttons with a black cross to zoom in, on the green button with a dash to zoom out, or on the green arrows for adjacent maps.


METAR-TAF: